メインページ
METAR-TAF:

METAR-TAF

空港 :

クウェート国際空港

クウェート, クウェート

緯度: 29-13N, 経度: 047-59E, 海抜: 55m

現時点の気象観測

当レポートは1時間15分前の01:00(UTC)に作成
北/北西の風 13kt
気温 16°C
湿度 77%
気圧 1024 hPa
視程10km以上
1,500メートル以下は雲なし、積乱雲なし

METAR: OKBK 150100Z 33013KT CAVOK 16/12 Q1024 NOSIG

時間: 05:15 (02:15 UTC)

予報

当レポートは3時間30分前の22:45(UTC)に作成
予報は15日の 00時(UTC)から 16日の 06時(UTC)まで有効
北/北西の風 8kt、最大18ktの突風を伴う
視程: 7000m
晴天
15日の 00時(UTC)から 15日の 04時(UTC)まで一時的に
変向風 3kt
視程: 4000m

TAF: OKBK 142245Z 1500/1606 33008G18KT 7000 SKC TEMPO 1500/1504 VRB03KT 4000 BR

4,000以上の空港の気象観測と天気予報(METAR報とTAF報)

利用可能な観測所は地図上に黄色い丸と赤い丸で示す。

丸の上にカーソルを重ねると観測所名を参照できる。

次にクリックすると気象観測と天気予報を参照できる。

マップの切り替え:黒色「×」印の緑ボタンをクリックして拡大、「-」印の緑ボタンをクリックして縮小、緑色の三角印をクリックして隣りの地図に切り替え


METAR-TAF: